TimeMST,TemperatureF,Dew PointF,Humidity,Sea Level PressureIn,VisibilityMPH,Wind Direction,Wind SpeedMPH,Gust SpeedMPH,PrecipitationIn,Events,Conditions,WindDirDegrees,DateUTC
12:53 AM,37.0,19.9,50,29.57,10.0,WSW,12.7,-,N/A,,Overcast,240,2012-12-12 07:53:00
1:53 AM,37.0,19.9,50,29.57,10.0,SW,11.5,-,N/A,,Overcast,230,2012-12-12 08:53:00
2:53 AM,36.0,19.9,52,29.59,10.0,NNE,5.8,-,N/A,,Overcast,30,2012-12-12 09:53:00
3:53 AM,36.0,19.9,52,29.58,10.0,ENE,6.9,-,N/A,,Overcast,70,2012-12-12 10:53:00
4:53 AM,37.0,19.9,50,29.60,10.0,SE,3.5,-,N/A,,Overcast,140,2012-12-12 11:53:00
5:53 AM,35.1,21.0,57,29.60,10.0,NE,5.8,-,N/A,,Overcast,40,2012-12-12 12:53:00
6:53 AM,35.1,21.0,57,29.61,10.0,North,8.1,-,N/A,,Overcast,10,2012-12-12 13:53:00
7:53 AM,35.1,21.9,59,29.63,10.0,NNW,6.9,-,N/A,,Overcast,340,2012-12-12 14:53:00
8:53 AM,35.1,21.9,59,29.62,10.0,NE,4.6,-,0.00,,Overcast,40,2012-12-12 15:53:00
9:53 AM,35.1,21.9,59,29.64,10.0,Calm,Calm,-,N/A,,Overcast,0,2012-12-12 16:53:00
10:53 AM,37.0,23.0,57,29.64,10.0,North,8.1,-,N/A,,Overcast,10,2012-12-12 17:53:00
11:53 AM,37.0,26.1,65,29.62,10.0,NE,9.2,-,N/A,,Overcast,50,2012-12-12 18:53:00
12:53 PM,36.0,30.0,79,29.63,10.0,NNE,5.8,-,N/A,,Overcast,30,2012-12-12 19:53:00
1:53 PM,37.0,30.9,79,29.63,10.0,NNE,9.2,-,N/A,,Overcast,20,2012-12-12 20:53:00
2:22 PM,37.4,32.0,81,29.60,10.0,NNE,9.2,-,N/A,,Overcast,20,2012-12-12 21:22:00
2:53 PM,37.0,32.0,82,29.67,10.0,NNE,8.1,-,N/A,,Overcast,30,2012-12-12 21:53:00
3:53 PM,36.0,33.1,89,29.71,10.0,North,5.8,-,0.00,Rain,Light Rain,10,2012-12-12 22:53:00
4:17 PM,35.6,33.8,93,29.66,9.0,NNE,4.6,-,0.01,Rain,Light Rain,20,2012-12-12 23:17:00
4:40 PM,33.8,32.0,93,29.67,10.0,North,6.9,-,0.01,,Overcast,360,2012-12-12 23:40:00
4:53 PM,34.0,33.1,96,29.74,10.0,North,5.8,-,0.01,,Overcast,350,2012-12-12 23:53:00
5:06 PM,33.8,33.8,100,29.70,10.0,NW,6.9,-,N/A,,Mostly Cloudy,320,2012-12-13 00:06:00
5:53 PM,33.1,32.0,96,29.81,8.0,West,8.1,-,0.01,Rain-Snow,Light Rain,280,2012-12-13 00:53:00
5:59 PM,33.8,32.0,93,29.73,10.0,West,6.9,-,0.00,Rain-Snow,Light Rain,270,2012-12-13 00:59:00
6:53 PM,34.0,32.0,92,29.83,10.0,WSW,10.4,-,0.00,,Overcast,240,2012-12-13 01:53:00
7:25 PM,33.8,32.0,93,29.76,10.0,SW,9.2,-,N/A,,Mostly Cloudy,230,2012-12-13 02:25:00
7:53 PM,33.1,32.0,96,29.84,10.0,WSW,8.1,-,N/A,,Mostly Cloudy,240,2012-12-13 02:53:00
8:53 PM,33.1,30.9,92,29.87,10.0,WNW,9.2,-,N/A,,Mostly Cloudy,290,2012-12-13 03:53:00
9:33 PM,32.0,30.2,93,29.80,10.0,NE,3.5,-,N/A,,Mostly Cloudy,50,2012-12-13 04:33:00
9:53 PM,30.9,30.0,96,29.88,10.0,Calm,Calm,-,N/A,,Mostly Cloudy,0,2012-12-13 04:53:00
10:53 PM,30.9,30.0,96,29.88,10.0,NNE,3.5,-,N/A,,Scattered Clouds,20,2012-12-13 05:53:00
11:14 PM,30.2,30.2,100,29.82,10.0,Calm,Calm,-,N/A,,Scattered Clouds,0,2012-12-13 06:14:00
11:33 PM,32.0,30.2,93,29.83,10.0,SSW,5.8,-,N/A,,Mostly Cloudy,200,2012-12-13 06:33:00
11:53 PM,30.9,30.9,100,29.90,6.0,South,3.5,-,N/A,,Mostly Cloudy,190,2012-12-13 06:53:00